Time;durP1;ratioP1;P1;durP2;ratioP2;P2;SDS_P1;SDS_P2;PMS_P1;PMS_P2;Temp;Humidity;BMP_temperature;BMP_pressure;BME280_temperature;BME280_humidity;BME280_pressure;Samples;Min_cycle;Max_cycle;Signal;HPM_P1;HPM_P2
2023/12/24 00:00:38;;;;;;;2.13;1.02;;;1.50;99.90;;;;;;5035046;28;20057;-81
2023/12/24 00:03:04;;;;;;;2.83;1.00;;;1.50;99.90;;;;;;5033918;28;20490;-81
2023/12/24 00:05:30;;;;;;;0.93;0.60;;;1.40;99.90;;;;;;5035077;28;20029;-81
2023/12/24 00:07:55;;;;;;;1.45;0.80;;;1.40;99.90;;;;;;5050102;28;20034;-81
2023/12/24 00:10:21;;;;;;;1.42;0.75;;;1.40;99.90;;;;;;5034238;28;20087;-81
2023/12/24 00:12:47;;;;;;;3.67;0.50;;;1.40;99.90;;;;;;5050384;28;20402;-81
2023/12/24 00:15:14;;;;;;;1.85;1.00;;;1.40;99.90;;;;;;5033759;28;20033;-81
2023/12/24 00:17:40;;;;;;;1.60;0.60;;;1.40;99.90;;;;;;5055004;28;20057;-81
2023/12/24 00:20:06;;;;;;;1.20;0.55;;;1.40;99.90;;;;;;5048843;28;20028;-81
2023/12/24 00:22:32;;;;;;;1.40;0.80;;;1.40;99.90;;;;;;5074157;28;20040;-81
2023/12/24 00:24:57;;;;;;;2.08;0.77;;;1.40;99.90;;;;;;5073996;28;20028;-81
2023/12/24 00:27:23;;;;;;;2.90;1.20;;;1.40;99.90;;;;;;5074020;28;20029;-81
2023/12/24 00:29:49;;;;;;;3.53;1.77;;;1.40;99.90;;;;;;5057443;28;20076;-80
2023/12/24 00:32:15;;;;;;;3.40;1.75;;;1.30;99.90;;;;;;5074931;28;20111;-81
2023/12/24 00:34:41;;;;;;;3.03;1.60;;;1.30;99.90;;;;;;5073564;28;20120;-80
2023/12/24 00:37:07;;;;;;;3.13;1.67;;;1.30;99.90;;;;;;5075103;28;20060;-80
2023/12/24 00:39:32;;;;;;;2.35;1.35;;;1.30;99.90;;;;;;5073638;28;20032;-80
2023/12/24 00:41:58;;;;;;;3.42;1.45;;;1.30;99.90;;;;;;5056944;28;20028;-81
2023/12/24 00:44:24;;;;;;;3.72;1.67;;;1.30;99.90;;;;;;5075002;28;20039;-80
2023/12/24 00:46:50;;;;;;;4.07;1.80;;;1.30;99.90;;;;;;5075028;28;20021;-80
2023/12/24 00:49:15;;;;;;;1.73;0.88;;;1.30;99.90;;;;;;5050052;28;20033;-80
2023/12/24 00:51:43;;;;;;;1.60;0.63;;;1.30;99.90;;;;;;5050218;28;20075;-80
2023/12/24 00:54:09;;;;;;;1.73;0.60;;;1.20;99.90;;;;;;5050059;28;20033;-80
2023/12/24 00:56:35;;;;;;;1.42;0.90;;;1.20;99.90;;;;;;5050500;28;20367;-80
2023/12/24 00:59:01;;;;;;;1.23;0.57;;;1.10;99.90;;;;;;5034944;28;20064;-80
2023/12/24 01:01:26;;;;;;;1.55;0.80;;;1.10;99.90;;;;;;5050102;28;20053;-80
2023/12/24 01:03:52;;;;;;;1.42;0.60;;;1.00;99.90;;;;;;5049595;28;20021;-80
2023/12/24 01:06:18;;;;;;;1.20;0.50;;;1.10;99.90;;;;;;5034902;28;20034;-80
2023/12/24 01:08:43;;;;;;;0.80;0.70;;;1.10;99.90;;;;;;5049696;28;20117;-80
2023/12/24 01:11:09;;;;;;;1.30;0.60;;;1.10;99.90;;;;;;5016827;28;20025;-80
2023/12/24 01:13:35;;;;;;;2.10;0.70;;;1.10;99.90;;;;;;5049711;28;20033;-80
2023/12/24 01:16:03;;;;;;;1.25;0.60;;;1.00;99.90;;;;;;5034844;28;20466;-80
2023/12/24 01:18:29;;;;;;;1.05;0.60;;;1.00;99.90;;;;;;5045916;28;20029;-80
2023/12/24 01:20:56;;;;;;;1.48;0.73;;;1.00;99.90;;;;;;5034029;28;20389;-80
2023/12/24 01:23:22;;;;;;;1.23;0.70;;;0.90;99.90;;;;;;5037861;28;20490;-80
2023/12/24 01:25:48;;;;;;;0.90;0.60;;;0.90;99.90;;;;;;5036775;28;20040;-80
2023/12/24 01:28:14;;;;;;;1.77;0.63;;;0.90;99.90;;;;;;5053342;28;20489;-80
2023/12/24 01:30:40;;;;;;;1.38;0.60;;;0.80;99.90;;;;;;5037963;28;20103;-80
2023/12/24 01:33:06;;;;;;;1.15;0.65;;;0.70;99.90;;;;;;5053330;28;20478;-80
2023/12/24 01:35:32;;;;;;;3.92;1.75;;;0.70;99.90;;;;;;5036330;28;20389;-80
2023/12/24 01:37:57;;;;;;;1.85;0.90;;;0.60;99.90;;;;;;5037907;28;20034;-80
2023/12/24 01:40:23;;;;;;;3.70;1.35;;;0.60;99.90;;;;;;5037825;28;20029;-80
2023/12/24 01:42:49;;;;;;;3.30;1.30;;;0.60;99.90;;;;;;5037803;28;20075;-80
2023/12/24 01:45:15;;;;;;;4.05;1.55;;;0.60;99.90;;;;;;5037755;28;20033;-80
2023/12/24 01:47:42;;;;;;;2.55;1.23;;;0.60;99.90;;;;;;5040805;28;20039;-80
2023/12/24 01:50:09;;;;;;;1.88;0.88;;;0.60;99.90;;;;;;5085253;28;20067;-80
2023/12/24 01:52:35;;;;;;;1.85;0.95;;;0.70;99.90;;;;;;5076396;28;20508;-80
2023/12/24 01:55:01;;;;;;;1.60;0.80;;;0.70;99.90;;;;;;5077955;28;20432;-80
2023/12/24 01:57:30;;;;;;;2.53;0.88;;;0.70;99.90;;;;;;5077962;28;20031;-80
2023/12/24 01:59:57;;;;;;;1.45;0.80;;;0.70;99.90;;;;;;5077500;28;20029;-79
2023/12/24 02:02:26;;;;;;;1.13;0.80;;;0.70;99.90;;;;;;5076637;28;20409;-79
2023/12/24 02:04:52;;;;;;;2.20;1.00;;;0.70;99.90;;;;;;5077644;28;20016;-80
2023/12/24 02:07:19;;;;;;;0.85;0.65;;;0.70;99.90;;;;;;5077789;28;20024;-79
2023/12/24 02:09:44;;;;;;;1.00;0.70;;;0.70;99.90;;;;;;5078264;28;20107;-79
2023/12/24 02:12:10;;;;;;;1.98;1.00;;;0.70;99.90;;;;;;5059736;28;20128;-79
2023/12/24 02:14:36;;;;;;;1.90;0.80;;;0.80;99.90;;;;;;5077933;28;20032;-79
2023/12/24 02:17:03;;;;;;;0.90;0.60;;;0.80;99.90;;;;;;5076708;28;20048;-79
2023/12/24 02:19:29;;;;;;;1.80;0.82;;;0.70;99.90;;;;;;5050741;28;20022;-79
2023/12/24 02:21:55;;;;;;;2.35;1.27;;;0.70;99.90;;;;;;5036046;28;20022;-80
2023/12/24 02:24:20;;;;;;;4.20;2.15;;;0.70;99.90;;;;;;5053572;28;20041;-79
2023/12/24 02:27:03;;;;;;;3.90;2.03;;;0.70;99.90;;;;;;5053508;28;20022;-79
2023/12/24 02:29:40;;;;;;;3.33;1.67;;;0.70;99.90;;;;;;5038392;28;20072;-79
2023/12/24 02:32:10;;;;;;;3.00;1.20;;;0.70;99.90;;;;;;5040661;28;20022;-79
2023/12/24 02:34:38;;;;;;;2.63;1.20;;;0.80;99.90;;;;;;5057501;28;20033;-80
2023/12/24 02:37:06;;;;;;;1.67;0.75;;;0.80;99.90;;;;;;5040075;28;20167;-80
2023/12/24 02:39:32;;;;;;;1.90;0.77;;;0.80;99.90;;;;;;5040574;28;20049;-80
2023/12/24 02:41:57;;;;;;;7.93;2.47;;;0.80;99.90;;;;;;5038499;28;20083;-80
2023/12/24 02:44:23;;;;;;;4.40;1.85;;;0.80;99.90;;;;;;5054797;28;20105;-79
2023/12/24 02:46:49;;;;;;;4.95;1.90;;;0.80;99.90;;;;;;5038954;28;20029;-80
2023/12/24 02:49:14;;;;;;;13.05;5.13;;;0.80;99.90;;;;;;5062114;28;20107;-80
2023/12/24 02:51:40;;;;;;;11.32;4.45;;;0.80;99.90;;;;;;5077120;28;20060;-79
2023/12/24 02:54:06;;;;;;;6.55;3.53;;;0.80;99.90;;;;;;5076314;28;20392;-79
2023/12/24 02:56:36;;;;;;;4.68;2.20;;;0.70;99.90;;;;;;5058335;28;20063;-79
2023/12/24 02:59:03;;;;;;;3.78;1.73;;;0.60;99.90;;;;;;5076337;28;20025;-79
2023/12/24 03:01:30;;;;;;;2.20;1.05;;;0.60;99.90;;;;;;5075087;28;20025;-79
2023/12/24 03:03:56;;;;;;;1.60;0.80;;;0.60;99.90;;;;;;5076475;28;20147;-79
2023/12/24 03:06:22;;;;;;;2.50;1.00;;;0.50;99.90;;;;;;5074765;28;20481;-79
2023/12/24 03:08:47;;;;;;;1.83;0.70;;;0.50;99.90;;;;;;5074834;28;20158;-79
2023/12/24 03:11:13;;;;;;;1.10;0.68;;;0.50;99.90;;;;;;5076915;28;20055;-79
2023/12/24 03:13:39;;;;;;;2.65;0.98;;;0.60;99.90;;;;;;5076264;28;20033;-79
2023/12/24 03:16:05;;;;;;;1.77;0.90;;;0.60;99.90;;;;;;5074891;28;20471;-79
2023/12/24 03:18:30;;;;;;;1.83;1.00;;;0.60;99.90;;;;;;5062814;28;20035;-79
2023/12/24 03:20:57;;;;;;;2.85;1.20;;;0.70;99.90;;;;;;5035564;28;20528;-79
2023/12/24 03:23:22;;;;;;;2.33;1.15;;;0.70;99.90;;;;;;5035794;28;20063;-79
2023/12/24 03:25:48;;;;;;;2.05;0.82;;;0.70;99.90;;;;;;5051241;28;20482;-79
2023/12/24 03:28:14;;;;;;;1.90;1.00;;;0.70;99.90;;;;;;5035653;28;20052;-79
2023/12/24 03:30:40;;;;;;;1.52;1.00;;;0.70;99.90;;;;;;5051163;28;20029;-79
2023/12/24 03:33:05;;;;;;;3.92;1.27;;;0.70;99.90;;;;;;5051209;28;20034;-79
2023/12/24 03:35:31;;;;;;;1.60;0.90;;;0.80;99.90;;;;;;5050623;28;20551;-79
2023/12/24 03:37:56;;;;;;;1.58;1.00;;;0.80;99.90;;;;;;5050707;28;20025;-79
2023/12/24 03:40:22;;;;;;;1.25;0.80;;;0.80;99.90;;;;;;5035939;28;20119;-79
2023/12/24 03:42:48;;;;;;;2.38;1.10;;;0.80;99.90;;;;;;5035916;28;20045;-79
2023/12/24 03:45:13;;;;;;;2.47;0.90;;;0.80;99.90;;;;;;5034731;28;20029;-79
2023/12/24 03:47:39;;;;;;;2.80;1.00;;;0.80;99.90;;;;;;5039968;28;20028;-79
2023/12/24 03:50:05;;;;;;;1.50;0.95;;;0.90;99.90;;;;;;5041760;28;20034;-79
2023/12/24 03:52:31;;;;;;;2.10;1.15;;;0.90;99.90;;;;;;5035422;28;20375;-79
2023/12/24 03:54:57;;;;;;;2.17;1.00;;;0.90;99.90;;;;;;5035190;28;20028;-79
2023/12/24 03:57:23;;;;;;;1.88;1.10;;;0.90;99.90;;;;;;5051105;28;20466;-79
2023/12/24 03:59:48;;;;;;;3.42;1.38;;;0.90;99.90;;;;;;5035282;28;20025;-79
2023/12/24 04:02:14;;;;;;;2.30;1.40;;;0.90;99.90;;;;;;5035324;28;20103;-79
2023/12/24 04:04:46;;;;;;;3.20;1.40;;;0.90;99.90;;;;;;5034158;28;20414;-79
2023/12/24 04:07:11;;;;;;;3.13;1.40;;;0.90;99.90;;;;;;5034865;28;20029;-79
2023/12/24 04:09:38;;;;;;;2.80;1.63;;;0.90;99.90;;;;;;5035023;28;20040;-79
2023/12/24 04:12:04;;;;;;;3.70;1.92;;;0.90;99.90;;;;;;5035166;28;20029;-79
2023/12/24 04:14:30;;;;;;;7.72;3.40;;;0.90;99.90;;;;;;5049991;28;20060;-79
2023/12/24 04:16:56;;;;;;;5.03;2.97;;;0.80;99.90;;;;;;5050122;28;20029;-79
2023/12/24 04:19:21;;;;;;;4.75;2.40;;;0.80;99.90;;;;;;5063024;28;20022;-79
2023/12/24 04:21:47;;;;;;;5.53;2.35;;;0.80;99.90;;;;;;5033535;28;20682;-79
2023/12/24 04:24:13;;;;;;;4.22;2.50;;;0.80;99.90;;;;;;5049975;28;20113;-79
2023/12/24 04:26:38;;;;;;;4.85;2.58;;;0.80;99.90;;;;;;5034764;28;20512;-79
2023/12/24 04:29:04;;;;;;;6.55;3.83;;;0.80;99.90;;;;;;5034669;28;20030;-79
2023/12/24 04:31:30;;;;;;;5.32;3.40;;;0.80;99.90;;;;;;5035290;28;20088;-79
2023/12/24 04:33:55;;;;;;;5.65;3.47;;;0.80;99.90;;;;;;5050109;28;20034;-79
2023/12/24 04:36:21;;;;;;;5.97;3.42;;;0.90;99.90;;;;;;5051126;28;20120;-80
2023/12/24 04:38:47;;;;;;;6.40;3.25;;;0.90;99.90;;;;;;5037905;28;20074;-79
2023/12/24 04:41:19;;;;;;;4.38;2.42;;;0.90;99.90;;;;;;5035753;28;20532;-79
2023/12/24 04:43:44;;;;;;;5.25;3.03;;;0.90;99.90;;;;;;5051798;28;20109;-79
2023/12/24 04:46:10;;;;;;;5.85;2.70;;;0.90;99.90;;;;;;5053556;28;20053;-79
2023/12/24 04:48:36;;;;;;;5.47;2.92;;;0.90;99.90;;;;;;5049899;28;20033;-79
2023/12/24 04:51:02;;;;;;;6.35;3.15;;;0.90;99.90;;;;;;5078767;28;20056;-79
2023/12/24 04:53:27;;;;;;;4.93;2.92;;;0.90;99.90;;;;;;5057637;28;20051;-79
2023/12/24 04:55:55;;;;;;;4.72;2.83;;;0.90;99.90;;;;;;5073644;28;20070;-79
2023/12/24 04:58:20;;;;;;;5.05;2.90;;;0.90;99.90;;;;;;5074919;28;20074;-79
2023/12/24 05:00:46;;;;;;;5.60;2.50;;;0.90;99.90;;;;;;5074931;28;20029;-79
2023/12/24 05:03:12;;;;;;;4.57;2.47;;;1.00;99.90;;;;;;5056823;28;20507;-79
2023/12/24 05:05:38;;;;;;;2.80;2.15;;;0.90;99.90;;;;;;5072932;28;20028;-79
2023/12/24 05:08:03;;;;;;;4.65;2.03;;;1.00;99.90;;;;;;5072820;28;20095;-79
2023/12/24 05:10:29;;;;;;;3.13;1.42;;;0.90;99.90;;;;;;5074176;28;20485;-79
2023/12/24 05:12:55;;;;;;;2.88;1.33;;;0.90;99.90;;;;;;5074245;28;20064;-79
2023/12/24 05:15:21;;;;;;;3.38;1.92;;;0.90;99.90;;;;;;5073252;28;20021;-79
2023/12/24 05:17:46;;;;;;;54.45;24.95;;;0.90;99.90;;;;;;5068590;28;20025;-78
2023/12/24 05:20:12;;;;;;;49.55;24.08;;;0.90;99.90;;;;;;5065821;28;20060;-78
2023/12/24 05:22:37;;;;;;;41.47;21.52;;;0.90;99.90;;;;;;5074044;28;20032;-78
2023/12/24 05:25:03;;;;;;;33.65;17.75;;;0.90;99.90;;;;;;5056173;28;20033;-78
2023/12/24 05:27:29;;;;;;;17.27;10.35;;;0.90;99.90;;;;;;5072900;28;20037;-78
2023/12/24 05:29:55;;;;;;;16.10;8.50;;;1.00;99.90;;;;;;5072798;28;20106;-78
2023/12/24 05:32:20;;;;;;;14.05;7.80;;;1.00;99.90;;;;;;5056174;28;20033;-79
2023/12/24 05:34:46;;;;;;;11.38;7.15;;;0.90;99.90;;;;;;5072601;28;20028;-79
2023/12/24 05:37:12;;;;;;;10.15;6.07;;;0.90;99.90;;;;;;5074077;28;20028;-79
2023/12/24 05:39:42;;;;;;;8.13;5.43;;;0.90;99.90;;;;;;5074293;28;20040;-79
2023/12/24 05:42:08;;;;;;;7.97;4.95;;;0.90;99.90;;;;;;5074694;28;20031;-79
2023/12/24 05:44:36;;;;;;;6.18;3.75;;;0.90;99.90;;;;;;5074675;28;20044;-79
2023/12/24 05:47:02;;;;;;;5.25;3.47;;;0.90;99.90;;;;;;5056436;28;20021;-79
2023/12/24 05:49:28;;;;;;;6.47;3.63;;;0.90;99.90;;;;;;5048972;28;20083;-79
2023/12/24 05:51:54;;;;;;;7.40;3.90;;;0.90;99.90;;;;;;5045193;28;20051;-79
2023/12/24 05:54:19;;;;;;;5.50;3.42;;;0.90;99.90;;;;;;5054345;28;20070;-79
2023/12/24 05:56:45;;;;;;;5.50;3.20;;;0.90;99.90;;;;;;5054168;28;20104;-79
2023/12/24 05:59:11;;;;;;;5.32;3.13;;;0.90;99.90;;;;;;5052660;28;20029;-79
2023/12/24 06:01:36;;;;;;;4.70;2.47;;;0.90;99.90;;;;;;5054680;28;20110;-79
2023/12/24 06:04:06;;;;;;;3.20;1.73;;;0.90;99.90;;;;;;5053300;28;20056;-79
2023/12/24 06:06:31;;;;;;;3.15;1.30;;;0.90;99.90;;;;;;5069734;28;20106;-79
2023/12/24 06:08:57;;;;;;;1.90;1.30;;;0.90;99.90;;;;;;5065478;28;20033;-79
2023/12/24 06:11:22;;;;;;;2.20;1.10;;;0.90;99.90;;;;;;5050917;28;20025;-79
2023/12/24 06:13:49;;;;;;;4.03;2.20;;;0.90;99.90;;;;;;5055364;28;20037;-79
2023/12/24 06:16:15;;;;;;;3.83;2.05;;;0.90;99.90;;;;;;5037183;28;20116;-79
2023/12/24 06:18:42;;;;;;;5.20;2.80;;;0.90;99.90;;;;;;5047593;28;20040;-79
2023/12/24 06:21:09;;;;;;;5.97;2.53;;;0.90;99.90;;;;;;5060393;28;20044;-79
2023/12/24 06:23:35;;;;;;;5.72;3.13;;;0.90;99.90;;;;;;5051465;28;20037;-79
2023/12/24 06:26:01;;;;;;;4.47;2.55;;;0.90;99.90;;;;;;5062061;28;20059;-79
2023/12/24 06:28:26;;;;;;;10.98;7.25;;;1.00;99.90;;;;;;5064452;28;20493;-79
2023/12/24 06:30:52;;;;;;;11.98;7.78;;;1.00;99.90;;;;;;5037131;28;20035;-79
2023/12/24 06:33:18;;;;;;;7.43;5.18;;;1.00;99.90;;;;;;5036736;28;20482;-79
2023/12/24 06:35:44;;;;;;;7.03;4.35;;;1.10;99.90;;;;;;5053287;28;20553;-79
2023/12/24 06:38:09;;;;;;;5.20;3.42;;;1.10;99.90;;;;;;5020317;28;20025;-79
2023/12/24 06:40:35;;;;;;;4.88;2.78;;;1.10;99.90;;;;;;5039989;28;20482;-79
2023/12/24 06:43:01;;;;;;;6.40;2.83;;;1.10;99.90;;;;;;5046662;28;20486;-81
2023/12/24 06:45:26;;;;;;;5.10;3.10;;;1.10;99.90;;;;;;5053823;28;20041;-81
2023/12/24 06:47:52;;;;;;;7.70;3.17;;;1.10;99.90;;;;;;5049328;28;20033;-80
2023/12/24 06:50:20;;;;;;;5.80;2.92;;;1.10;99.90;;;;;;5052966;28;20055;-80
2023/12/24 06:52:45;;;;;;;9.75;5.80;;;1.10;99.90;;;;;;5048017;28;20025;-80
2023/12/24 06:55:12;;;;;;;8.50;5.18;;;1.10;99.90;;;;;;5042431;28;20099;-81
2023/12/24 06:57:38;;;;;;;8.80;5.05;;;1.10;99.90;;;;;;5047697;28;20055;-80
2023/12/24 07:00:05;;;;;;;6.43;4.25;;;1.10;99.90;;;;;;5038366;28;20074;-79
2023/12/24 07:02:31;;;;;;;6.00;3.88;;;1.10;99.90;;;;;;5046697;28;20076;-79
2023/12/24 07:04:57;;;;;;;4.82;2.97;;;1.10;99.90;;;;;;5049454;28;20029;-80
2023/12/24 07:07:22;;;;;;;6.07;3.47;;;1.10;99.90;;;;;;5045445;28;20083;-81
2023/12/24 07:09:48;;;;;;;12.48;7.07;;;1.10;99.90;;;;;;5053513;28;20033;-79
2023/12/24 07:12:14;;;;;;;12.88;7.13;;;1.00;99.90;;;;;;5046644;28;20030;-78
2023/12/24 07:14:39;;;;;;;8.77;5.45;;;1.00;99.90;;;;;;5056533;28;20105;-79
2023/12/24 07:17:05;;;;;;;8.07;4.72;;;1.00;99.90;;;;;;5056364;28;20111;-78
2023/12/24 07:19:33;;;;;;;6.60;3.58;;;1.00;99.90;;;;;;5049415;28;20548;-78
2023/12/24 07:21:58;;;;;;;7.28;3.80;;;1.00;99.90;;;;;;5035370;28;20040;-78
2023/12/24 07:24:24;;;;;;;6.20;3.15;;;1.00;99.90;;;;;;5041431;28;20038;-78
2023/12/24 07:26:50;;;;;;;4.63;2.92;;;1.00;99.90;;;;;;5058305;28;20033;-78
2023/12/24 07:29:15;;;;;;;4.68;2.85;;;1.00;99.90;;;;;;5044356;28;20060;-79
2023/12/24 07:31:41;;;;;;;7.95;4.20;;;1.00;99.90;;;;;;5045601;28;20079;-79
2023/12/24 07:34:07;;;;;;;6.82;4.05;;;1.00;99.90;;;;;;5039180;28;20033;-78
2023/12/24 07:36:32;;;;;;;7.70;4.45;;;0.90;99.90;;;;;;5044017;28;20021;-78
2023/12/24 07:38:58;;;;;;;9.95;5.03;;;0.90;99.90;;;;;;5060596;28;20025;-78
2023/12/24 07:41:26;;;;;;;8.02;4.25;;;0.90;99.90;;;;;;5048328;28;20098;-78
2023/12/24 07:43:52;;;;;;;6.45;3.97;;;0.80;99.90;;;;;;5052251;28;20033;-78
2023/12/24 07:46:18;;;;;;;10.40;5.43;;;0.80;99.90;;;;;;5044277;28;20069;-78
2023/12/24 07:48:43;;;;;;;9.65;5.32;;;0.80;99.90;;;;;;5053916;28;20025;-78
2023/12/24 07:51:09;;;;;;;10.90;5.70;;;0.80;99.90;;;;;;5039724;28;20428;-78
2023/12/24 07:53:35;;;;;;;11.25;6.10;;;0.80;99.90;;;;;;5047249;28;20029;-78
2023/12/24 07:56:00;;;;;;;9.23;5.20;;;0.80;99.90;;;;;;5042827;28;20048;-78
2023/12/24 07:58:26;;;;;;;8.95;4.97;;;0.80;99.90;;;;;;5058034;28;20022;-78
2023/12/24 08:00:52;;;;;;;11.27;6.40;;;0.90;99.90;;;;;;5041062;28;20075;-78
2023/12/24 08:03:17;;;;;;;7.50;3.90;;;0.90;99.90;;;;;;5041213;28;20034;-78
2023/12/24 08:05:43;;;;;;;7.43;3.08;;;0.90;99.90;;;;;;5037932;28;20112;-78
2023/12/24 08:08:09;;;;;;;5.47;3.22;;;0.90;99.90;;;;;;5056889;28;20034;-78
2023/12/24 08:10:34;;;;;;;6.05;3.25;;;0.90;99.90;;;;;;5046813;28;20025;-78
2023/12/24 08:13:01;;;;;;;5.80;3.42;;;0.90;99.90;;;;;;5061163;28;20109;-78
2023/12/24 08:15:26;;;;;;;8.45;3.95;;;1.00;99.90;;;;;;5049199;28;20086;-79
2023/12/24 08:17:52;;;;;;;9.38;4.00;;;1.00;99.90;;;;;;5045935;28;20100;-78
2023/12/24 08:20:21;;;;;;;7.00;3.70;;;1.00;99.90;;;;;;5048456;28;20079;-79
2023/12/24 08:22:48;;;;;;;5.72;3.55;;;1.10;99.90;;;;;;5047633;28;20478;-79
2023/12/24 08:25:14;;;;;;;7.18;4.38;;;1.10;99.90;;;;;;5044775;28;20037;-78
2023/12/24 08:27:39;;;;;;;59.53;24.88;;;1.10;99.90;;;;;;5040063;28;20163;-78
2023/12/24 08:30:05;;;;;;;47.22;21.05;;;1.20;99.90;;;;;;5038835;28;20037;-78
2023/12/24 08:32:31;;;;;;;35.10;16.10;;;1.20;99.90;;;;;;5033814;28;20039;-78
2023/12/24 08:34:57;;;;;;;29.30;13.15;;;1.30;99.90;;;;;;5034601;28;20025;-78
2023/12/24 08:37:22;;;;;;;24.00;10.85;;;1.30;99.90;;;;;;5034147;28;20060;-78
2023/12/24 08:39:48;;;;;;;24.70;13.23;;;1.40;99.90;;;;;;5049603;28;20044;-79
2023/12/24 08:42:14;;;;;;;19.65;9.77;;;1.40;99.90;;;;;;5033288;28;20021;-78
2023/12/24 08:44:39;;;;;;;40.47;16.88;;;1.40;99.90;;;;;;5048383;28;20025;-79
2023/12/24 08:47:05;;;;;;;33.13;15.85;;;1.40;99.90;;;;;;5044575;28;20021;-81
2023/12/24 08:49:31;;;;;;;29.08;14.43;;;1.40;99.90;;;;;;5048240;28;20029;-81
2023/12/24 08:51:56;;;;;;;11.73;6.20;;;1.50;99.90;;;;;;5074321;28;20105;-81
2023/12/24 08:54:24;;;;;;;6.32;3.50;;;1.50;99.90;;;;;;5057045;28;20048;-81
2023/12/24 08:56:50;;;;;;;7.32;3.97;;;1.60;99.90;;;;;;5075111;28;20088;-81
2023/12/24 08:59:15;;;;;;;8.93;4.57;;;1.60;99.90;;;;;;5075090;28;20056;-81
2023/12/24 09:01:41;;;;;;;19.00;8.40;;;1.60;99.90;;;;;;5074083;28;20032;-81
2023/12/24 09:04:07;;;;;;;12.50;6.10;;;1.70;99.90;;;;;;5073896;28;20029;-81
2023/12/24 09:06:33;;;;;;;9.95;5.15;;;1.70;99.90;;;;;;5074785;28;20107;-81
2023/12/24 09:08:59;;;;;;;9.02;5.45;;;1.80;99.90;;;;;;5074641;28;20060;-81
2023/12/24 09:11:24;;;;;;;10.00;5.00;;;1.80;99.90;;;;;;5074758;28;20039;-81
2023/12/24 09:13:50;;;;;;;7.90;4.55;;;1.80;99.90;;;;;;5073375;28;20025;-81
2023/12/24 09:16:16;;;;;;;8.93;5.00;;;1.80;99.90;;;;;;5059604;28;20025;-80
2023/12/24 09:18:41;;;;;;;9.70;5.32;;;1.90;99.90;;;;;;5040863;28;20049;-80
2023/12/24 09:21:07;;;;;;;8.43;5.28;;;1.90;99.90;;;;;;5038205;28;20029;-81
2023/12/24 09:23:33;;;;;;;8.95;5.00;;;1.90;99.90;;;;;;5048811;28;20485;-81
2023/12/24 09:25:58;;;;;;;9.15;4.93;;;1.90;99.90;;;;;;5027766;28;20033;-81
2023/12/24 09:28:24;;;;;;;7.20;4.25;;;2.00;99.90;;;;;;5039801;28;20038;-82
2023/12/24 09:30:50;;;;;;;8.38;4.03;;;2.10;99.90;;;;;;5039384;28;20064;-82
2023/12/24 09:33:15;;;;;;;6.97;3.50;;;2.10;99.90;;;;;;5042624;28;20083;-81
2023/12/24 09:35:43;;;;;;;8.30;3.58;;;2.20;99.90;;;;;;5039568;28;20033;-81
2023/12/24 09:38:12;;;;;;;6.90;3.63;;;2.20;99.90;;;;;;5047308;28;20048;-81
2023/12/24 09:40:38;;;;;;;6.43;3.65;;;2.30;99.90;;;;;;5025264;28;20047;-81
2023/12/24 09:43:04;;;;;;;5.10;3.40;;;2.30;99.90;;;;;;5045385;28;20033;-82
2023/12/24 09:45:33;;;;;;;9.85;5.60;;;2.40;99.90;;;;;;5043568;28;20084;-81
2023/12/24 09:47:59;;;;;;;8.45;4.70;;;2.40;99.90;;;;;;5045703;28;20100;-81
2023/12/24 09:50:25;;;;;;;7.72;4.88;;;2.60;99.90;;;;;;5072522;28;20113;-81
2023/12/24 09:52:50;;;;;;;8.23;4.50;;;2.60;99.90;;;;;;5076714;28;20029;-81
2023/12/24 09:55:16;;;;;;;10.60;5.50;;;2.70;99.90;;;;;;5076878;28;20029;-82
2023/12/24 09:57:42;;;;;;;7.57;4.70;;;2.70;99.90;;;;;;5076522;28;20051;-79
2023/12/24 10:00:09;;;;;;;8.02;4.68;;;2.80;99.90;;;;;;5060059;28;20425;-79
2023/12/24 10:02:36;;;;;;;6.30;3.78;;;2.80;99.90;;;;;;5076425;28;20378;-79
2023/12/24 10:05:06;;;;;;;6.88;3.88;;;2.80;99.90;;;;;;5077850;28;20395;-79
2023/12/24 10:07:40;;;;;;;6.93;4.07;;;2.80;99.90;;;;;;5076664;28;20484;-79
2023/12/24 10:10:11;;;;;;;8.30;4.00;;;2.80;99.90;;;;;;5076390;28;20029;-79
2023/12/24 10:12:37;;;;;;;;;;;2.80;99.90;;;;;;5077371;28;20028;-79
2023/12/24 10:15:03;;;;;;;8.93;5.30;;;2.90;99.90;;;;;;5076256;28;20352;-79
2023/12/24 10:17:33;;;;;;;8.30;4.95;;;2.90;99.90;;;;;;5023272;28;20685;-79
2023/12/24 10:20:02;;;;;;;10.20;5.45;;;2.90;99.90;;;;;;5045341;28;20020;-79
2023/12/24 10:22:28;;;;;;;10.05;5.78;;;2.90;99.90;;;;;;5042241;28;20069;-80
2023/12/24 10:25:05;;;;;;;10.82;6.70;;;2.90;99.90;;;;;;5038883;28;20041;-79
2023/12/24 10:27:31;;;;;;;13.65;6.47;;;3.00;99.90;;;;;;5039392;28;20037;-79
2023/12/24 10:30:13;;;;;;;17.23;10.32;;;3.00;99.90;;;;;;5038925;28;20029;-79
2023/12/24 10:32:41;;;;;;;15.05;9.15;;;3.10;99.90;;;;;;5055452;28;20401;-80
2023/12/24 10:35:07;;;;;;;18.15;11.00;;;3.10;99.90;;;;;;5040119;28;20036;-80
2023/12/24 10:37:33;;;;;;;16.02;9.43;;;3.10;99.90;;;;;;5039015;28;20076;-80
2023/12/24 10:40:10;;;;;;;11.45;6.00;;;3.10;99.90;;;;;;5038255;28;20104;-80
2023/12/24 10:42:40;;;;;;;9.95;5.38;;;3.10;99.90;;;;;;5038132;28;20044;-79
2023/12/24 10:45:11;;;;;;;10.55;5.50;;;3.20;99.90;;;;;;5039451;28;20030;-79
2023/12/24 10:47:40;;;;;;;11.63;5.55;;;3.20;99.90;;;;;;5038145;28;20028;-80
2023/12/24 10:50:06;;;;;;;11.38;6.22;;;3.20;99.90;;;;;;5053038;28;20032;-80
2023/12/24 10:52:32;;;;;;;11.93;6.80;;;3.30;99.90;;;;;;5035623;28;20025;-80
2023/12/24 10:55:00;;;;;;;15.48;8.38;;;3.40;99.90;;;;;;5053859;28;20490;-80
2023/12/24 10:57:51;;;;;;;15.40;8.63;;;3.40;99.90;;;;;;5036970;28;20112;-80
2023/12/24 11:00:18;;;;;;;12.18;7.07;;;3.40;99.90;;;;;;5038283;28;20022;-80
2023/12/24 11:02:46;;;;;;;13.80;8.05;;;3.40;99.90;;;;;;5036652;28;20050;-80
2023/12/24 11:05:12;;;;;;;15.10;8.32;;;3.40;99.90;;;;;;5041205;28;20508;-80
2023/12/24 11:07:47;;;;;;;11.98;6.90;;;3.50;99.90;;;;;;5020070;28;20038;-80
2023/12/24 11:10:55;;;;;;;10.50;6.28;;;3.50;99.90;;;;;;5037718;28;20079;-80
2023/12/24 11:13:32;;;;;;;8.63;4.85;;;3.50;99.90;;;;;;4996466;28;20121;-80
2023/12/24 11:15:59;;;;;;;6.93;4.32;;;3.60;99.90;;;;;;5031615;28;20427;-81
2023/12/24 11:18:47;;;;;;;7.78;4.90;;;3.60;99.90;;;;;;5036414;28;20021;-81
2023/12/24 11:21:19;;;;;;;10.38;5.07;;;3.60;99.90;;;;;;5037374;28;20021;-81
2023/12/24 11:24:14;;;;;;;9.57;4.85;;;3.60;99.90;;;;;;5035459;28;20044;-81
2023/12/24 11:26:50;;;;;;;11.68;6.10;;;3.60;99.90;;;;;;5037156;28;20025;-81
2023/12/24 11:29:38;;;;;;;9.95;6.07;;;3.60;99.90;;;;;;5037550;28;20036;-81
2023/12/24 11:32:25;;;;;;;9.68;5.00;;;3.60;99.90;;;;;;5037490;28;20096;-81
2023/12/24 11:34:52;;;;;;;10.43;5.50;;;3.60;99.90;;;;;;5052476;28;20025;-81
2023/12/24 11:37:33;;;;;;;15.00;8.07;;;3.70;99.90;;;;;;5036018;28;20030;-81
2023/12/24 11:40:03;;;;;;;10.95;6.10;;;3.70;99.90;;;;;;5036838;28;20025;-81
2023/12/24 11:42:49;;;;;;;10.57;6.57;;;3.80;99.90;;;;;;5054390;28;20025;-81
2023/12/24 11:45:29;;;;;;;12.63;7.10;;;3.80;99.90;;;;;;5038432;28;20029;-81
2023/12/24 11:47:55;;;;;;;18.88;9.48;;;3.90;99.90;;;;;;5035986;28;20053;-81
2023/12/24 11:50:21;;;;;;;9.73;5.28;;;3.90;99.90;;;;;;5040974;28;20078;-81
2023/12/24 11:52:48;;;;;;;9.10;4.75;;;3.90;99.90;;;;;;5037963;28;20047;-81
2023/12/24 11:55:18;;;;;;;6.57;3.80;;;3.90;99.90;;;;;;5049528;28;20108;-81
2023/12/24 11:57:45;;;;;;;8.55;3.83;;;3.90;99.90;;;;;;5037808;28;20111;-81
2023/12/24 12:00:23;;;;;;;6.65;3.63;;;3.90;99.90;;;;;;5054906;28;20040;-81
2023/12/24 12:02:57;;;;;;;7.18;4.32;;;3.90;99.90;;;;;;5055750;28;20029;-81
2023/12/24 12:05:24;;;;;;;8.43;4.20;;;4.00;99.90;;;;;;5037108;28;20029;-81
2023/12/24 12:07:50;;;;;;;11.23;4.50;;;4.00;99.90;;;;;;5055197;28;20030;-81
2023/12/24 12:10:17;;;;;;;8.82;4.65;;;4.00;99.90;;;;;;5055323;28;20440;-81
2023/12/24 12:12:43;;;;;;;10.00;4.82;;;4.00;99.90;;;;;;5021121;28;20366;-81
2023/12/24 12:15:10;;;;;;;9.32;4.82;;;4.10;99.90;;;;;;5054115;28;20025;-82
2023/12/24 12:17:36;;;;;;;12.13;6.60;;;4.20;99.90;;;;;;5055081;28;20032;-82
2023/12/24 12:20:02;;;;;;;11.27;5.88;;;4.20;99.90;;;;;;5034114;28;20405;-82
2023/12/24 12:22:28;;;;;;;12.20;6.53;;;4.20;99.90;;;;;;5060474;28;20037;-82
2023/12/24 12:24:54;;;;;;;14.73;7.60;;;4.30;99.90;;;;;;5037461;28;20036;-82
2023/12/24 12:27:20;;;;;;;14.35;7.78;;;4.30;99.90;;;;;;5036858;28;20444;-82
2023/12/24 12:29:45;;;;;;;15.93;8.32;;;4.40;99.90;;;;;;5036978;28;20025;-82
2023/12/24 12:32:11;;;;;;;13.77;7.30;;;4.50;99.90;;;;;;5053634;28;20028;-82
2023/12/24 12:34:38;;;;;;;13.43;7.10;;;4.50;99.90;;;;;;5053213;28;20393;-83
2023/12/24 12:37:04;;;;;;;12.75;7.30;;;4.50;99.90;;;;;;5053267;28;20025;-82
2023/12/24 12:39:30;;;;;;;12.70;7.18;;;4.50;99.90;;;;;;5053717;28;20029;-82
2023/12/24 12:41:57;;;;;;;35.10;24.05;;;4.50;99.90;;;;;;5020420;28;20025;-82
2023/12/24 12:44:23;;;;;;;18.40;11.32;;;4.40;99.90;;;;;;5053400;28;20083;-82
2023/12/24 12:46:49;;;;;;;20.08;12.52;;;4.40;99.90;;;;;;5020432;28;20041;-83
2023/12/24 12:49:15;;;;;;;18.42;10.93;;;4.40;99.90;;;;;;5019978;28;20035;-83
2023/12/24 12:51:41;;;;;;;17.23;9.93;;;4.40;99.90;;;;;;5036709;28;20033;-83